Riverdale, MD (20737)

11:29 AM EDT on August 30, 2014 (GMT -0400)
Riverdale Park | Change Station
CLOSE
Current Station
Personal Weather Station
Location: Riverdale, MD
Elevation: 52 ft
Nearby Weather Stations

Elev 52 ft 38.96 °N, 76.94 °W | Updated 5 seconds ago

Overcast
Overcast
74.0 °F
Feels Like 75 °F
N
6.0
Wind Variable Wind from SSW
Gusts 12.0 mph

Today
High -- | Low -- °F
--% Chance of Precip.
Yesterday
High -- | Low -- °F
Precip. -- in
6:34 AM 7:41 PM
Waxing Crescent, 22% visible
Pressure 30.23 in
Visibility 10.0 miles
Clouds Overcast 3100 ft
Heat Index 75 °F
Dew Point 66 °F
Humidity 75%
Rainfall 0.00 in
Snow Depth Not available.
UV 2 out of 12
Pollen 9.50 out of 12
Air Quality Not available.
Flu Activity Not available.
METAR KCGS 301520Z AUTO 14004KT 10SM OVC031 24/18 A3023 RMK AO1

More Conditions Fewer Conditions

Pressure 30.23 in
Visibility 10.0 miles
Clouds Overcast 3100 ft
Heat Index 75 °F
Dew Point 66 °F
Humidity 75%
Rainfall 0.00 in
Snow Depth Not available.
UV 2 out of 12
Pollen 9.50 out of 12
Air Quality Not available.
Flu Activity Not available.
METAR KCGS 301520Z AUTO 14004KT 10SM OVC031 24/18 A3023 RMK AO1

More Conditions Fewer Conditions

10-Day Weather Forecast

Almanac

Astronomy

Aug. 30, 2014 Rise Set
Actual Time 6:34 AM EDT 7:41 PM EDT
Civil Twilight 6:07 AM EDT 8:08 PM EDT
Nautical Twilight 5:34 AM EDT 8:41 PM EDT
Astronomical Twilight 5:00 AM EDT 9:15 PM EDT
Moon 11:17 AM EDT 10:16 PM EDT
Length of Visible Light 14h 01m
Length of Day
13h 06m
Tomorrow will be 2m 25s shorter.
Waxing Crescent, 22% of the Moon is Illuminated
Today
Waxing Crescent
Sep 2
First Quarter
Sep 8
Full
Sep 15
Last Quarter
Sep 24
New

Today's Extremes

State Highs State Lows

Community

WunderPhotos

Upload Photos

1,748,548 photos uploaded!

WunderBlogs® & News

Nearby

Snow Depth

Station Depth Elevation
No new snow has been reported.

Earthquake Activity

City Distance Mag. Time & Date
No recent earthquake activity has been reported nearby.
Minimum magnitude displayed is 2.5.

Coastal Water Temperatures

Place Temperature
Washington, DC 79.0 °F
Baltimore, MD 79.0 °F
Solomons Island, MD 78.1 °F

Nearby Weather Stations